DAL501 KATL-KLAX
Flight info
| Callsign | DAL501 |
|---|---|
| Flight time | N/A |
| Altitude | 28000 |
| Route | NASSA2 YAALL J14 KLUBB/N0464F300 J14 PNH ACH ABQ J78 DRK GABBL HLYWD1 |
| Aircraft | A321/M-SDE3FGHIRWY/LB1 |
Departure
| Time | 2026-05-04 16:41 |
|---|---|
| Airport | Hartsfield Jackson Atlanta International Airport (KATL) |
Arrival
| Time | N/A |
|---|---|
| Airport | Los Angeles International Airport (KLAX) |
| Time | Latitude | Longitude | Altitude | Speed | Heading |
|---|---|---|---|---|---|
| 2026-05-04 15:45 | 33.64164 | -84.43969 | 1036 ft | 0 kts | 90° |
| 2026-05-04 16:28 | 33.64164 | -84.43996 | 1035 ft | 4 kts | 90° |
| 2026-05-04 16:28 | 33.64135 | -84.44051 | 1035 ft | 0 kts | 0° |
| 2026-05-04 16:31 | 33.64167 | -84.44051 | 1043 ft | 7 kts | 360° |
| 2026-05-04 16:32 | 33.64416 | -84.44016 | 1035 ft | 13 kts | 54° |
| 2026-05-04 16:33 | 33.64451 | -84.43795 | 1035 ft | 15 kts | 82° |
| 2026-05-04 16:33 | 33.64460 | -84.43501 | 1035 ft | 20 kts | 90° |
| 2026-05-04 16:34 | 33.64459 | -84.43172 | 1036 ft | 18 kts | 90° |
| 2026-05-04 16:34 | 33.64460 | -84.43028 | 1035 ft | 16 kts | 90° |
| 2026-05-04 16:35 | 33.64468 | -84.42634 | 1035 ft | 16 kts | 89° |
| 2026-05-04 16:35 | 33.64477 | -84.42251 | 1035 ft | 14 kts | 68° |
| 2026-05-04 16:36 | 33.64522 | -84.42155 | 1035 ft | 13 kts | 59° |
| 2026-05-04 16:36 | 33.64543 | -84.41914 | 1035 ft | 21 kts | 90° |
| 2026-05-04 16:37 | 33.64543 | -84.41586 | 1036 ft | 19 kts | 90° |
| 2026-05-04 16:37 | 33.64543 | -84.41425 | 1036 ft | 19 kts | 90° |
| 2026-05-04 16:37 | 33.64543 | -84.41124 | 1036 ft | 16 kts | 90° |
| 2026-05-04 16:38 | 33.64544 | -84.40857 | 1035 ft | 16 kts | 86° |
| 2026-05-04 16:39 | 33.64619 | -84.40573 | 1033 ft | 10 kts | 9° |
| 2026-05-04 16:39 | 33.64679 | -84.40599 | 1033 ft | 3 kts | 276° |
| 2026-05-04 16:40 | 33.64679 | -84.41183 | 1036 ft | 99 kts | 270° |
| 2026-05-04 16:40 | 33.64684 | -84.43707 | 1433 ft | 175 kts | 270° |
| 2026-05-04 16:41 | 33.64845 | -84.46639 | 3048 ft | 180 kts | 282° |
| 2026-05-04 16:41 | 33.65768 | -84.51542 | 3753 ft | 219 kts | 282° |
| 2026-05-04 16:42 | 33.66872 | -84.57539 | 4683 ft | 261 kts | 282° |
| 2026-05-04 16:43 | 33.67633 | -84.61838 | 5968 ft | 269 kts | 280° |
| 2026-05-04 16:43 | 33.68379 | -84.66308 | 7111 ft | 277 kts | 279° |
| 2026-05-04 16:43 | 33.68756 | -84.68594 | 7674 ft | 282 kts | 280° |
| 2026-05-04 16:44 | 33.69993 | -84.78100 | 9870 ft | 296 kts | 268° |
| 2026-05-04 16:45 | 33.69980 | -84.83144 | 10275 ft | 317 kts | 268° |
| 2026-05-04 16:46 | 33.69956 | -84.91724 | 10779 ft | 366 kts | 268° |
| 2026-05-04 16:46 | 33.69946 | -84.97876 | 11927 ft | 369 kts | 269° |
| 2026-05-04 16:47 | 33.69933 | -85.04066 | 13160 ft | 371 kts | 270° |
| 2026-05-04 16:47 | 33.69907 | -85.10284 | 14296 ft | 373 kts | 270° |
| 2026-05-04 16:48 | 33.69866 | -85.19672 | 15816 ft | 376 kts | 270° |
| 2026-05-04 16:48 | 33.69853 | -85.22818 | 16308 ft | 378 kts | 270° |
| 2026-05-04 16:49 | 33.69802 | -85.29147 | 17254 ft | 380 kts | 270° |
| 2026-05-04 16:49 | 33.69725 | -85.35516 | 18149 ft | 383 kts | 270° |